Time;durP1;ratioP1;P1;durP2;ratioP2;P2;SDS_P1;SDS_P2;PMS_P1;PMS_P2;Temp;Humidity;BMP_temperature;BMP_pressure;BME280_temperature;BME280_humidity;BME280_pressure;Samples;Min_cycle;Max_cycle;Signal;HPM_P1;HPM_P2
2021/06/24 00:01:13;;;;;;;5.97;3.22;;;15.50;99.90;;;;;;5015620;28;20100;-75
2021/06/24 00:03:39;;;;;;;4.93;3.00;;;15.40;99.90;;;;;;5015653;28;20022;-75
2021/06/24 00:06:06;;;;;;;5.90;3.05;;;15.40;99.90;;;;;;5015263;28;20121;-75
2021/06/24 00:08:32;;;;;;;6.07;3.42;;;15.40;99.90;;;;;;5015650;28;20026;-73
2021/06/24 00:11:00;;;;;;;4.60;3.30;;;15.30;99.90;;;;;;5015723;28;20498;-73
2021/06/24 00:13:26;;;;;;;7.43;3.58;;;15.40;99.90;;;;;;5015044;28;20026;-74
2021/06/24 00:15:52;;;;;;;9.35;3.80;;;15.30;99.90;;;;;;5015446;28;20025;-74
2021/06/24 00:18:18;;;;;;;7.55;3.33;;;15.30;99.90;;;;;;5015570;28;20104;-73
2021/06/24 00:20:45;;;;;;;5.28;3.40;;;15.20;99.90;;;;;;5015238;28;20168;-73
2021/06/24 00:23:10;;;;;;;6.95;3.25;;;15.20;99.90;;;;;;5015534;28;20347;-73
2021/06/24 00:25:36;;;;;;;5.95;3.40;;;15.10;99.90;;;;;;5013734;28;20022;-73
2021/06/24 00:28:02;;;;;;;7.70;3.38;;;15.10;99.90;;;;;;5015162;28;20455;-73
2021/06/24 00:30:28;;;;;;;7.13;3.83;;;15.10;99.90;;;;;;5013678;28;20068;-72
2021/06/24 00:32:54;;;;;;;5.47;3.10;;;15.10;99.90;;;;;;5014740;28;20036;-72
2021/06/24 00:35:19;;;;;;;6.18;3.47;;;15.20;99.90;;;;;;5014903;28;20060;-72
2021/06/24 00:37:45;;;;;;;5.88;3.15;;;15.20;99.90;;;;;;5014824;28;20026;-72
2021/06/24 00:40:12;;;;;;;4.97;3.08;;;15.20;99.90;;;;;;5014835;28;20363;-72
2021/06/24 00:42:40;;;;;;;4.28;2.80;;;15.20;99.90;;;;;;5014668;28;20037;-72
2021/06/24 00:45:07;;;;;;;4.63;2.60;;;15.20;99.90;;;;;;5014844;28;20120;-72
2021/06/24 00:47:33;;;;;;;7.45;3.25;;;15.20;99.90;;;;;;5014610;28;20026;-72
2021/06/24 00:49:59;;;;;;;4.13;2.60;;;15.10;99.90;;;;;;5014724;28;20040;-72
2021/06/24 00:52:25;;;;;;;6.30;3.30;;;15.10;99.90;;;;;;5014725;28;20136;-72
2021/06/24 00:54:51;;;;;;;5.50;3.10;;;15.10;99.90;;;;;;5014657;28;20093;-72
2021/06/24 00:57:16;;;;;;;4.38;2.83;;;15.00;99.90;;;;;;5014375;28;20022;-72
2021/06/24 00:59:42;;;;;;;5.40;2.67;;;15.00;99.90;;;;;;5012666;28;20026;-72
2021/06/24 01:02:08;;;;;;;5.95;3.15;;;14.90;99.90;;;;;;5012907;28;20021;-72
2021/06/24 01:04:35;;;;;;;6.00;2.70;;;14.90;99.90;;;;;;5013341;28;20482;-77
2021/06/24 01:07:02;;;;;;;4.30;2.50;;;15.00;99.90;;;;;;4997645;28;20054;-78
2021/06/24 01:09:27;;;;;;;9.07;2.95;;;15.00;99.90;;;;;;5011249;28;20026;-78
2021/06/24 01:11:56;;;;;;;4.40;2.22;;;14.90;99.90;;;;;;5011246;28;20033;-78
2021/06/24 01:14:22;;;;;;;3.83;2.35;;;14.90;99.90;;;;;;5011258;28;20024;-78
2021/06/24 01:16:51;;;;;;;2.95;2.22;;;14.90;99.90;;;;;;5011066;28;20036;-78
2021/06/24 01:19:17;;;;;;;2.88;2.00;;;14.80;99.90;;;;;;5011042;28;20033;-78
2021/06/24 01:21:43;;;;;;;4.53;2.30;;;14.80;99.90;;;;;;5011238;28;20033;-77
2021/06/24 01:24:09;;;;;;;4.88;2.42;;;14.80;99.90;;;;;;5010469;28;20022;-77
2021/06/24 01:26:37;;;;;;;4.13;2.10;;;14.70;99.90;;;;;;5011200;28;20532;-77
2021/06/24 01:29:03;;;;;;;3.95;2.08;;;14.80;99.90;;;;;;5009447;28;20426;-77
2021/06/24 01:31:29;;;;;;;4.25;2.50;;;14.80;99.90;;;;;;5010992;28;20029;-78
2021/06/24 01:33:54;;;;;;;5.75;2.08;;;14.70;99.90;;;;;;5010868;28;20053;-78
2021/06/24 01:36:20;;;;;;;5.80;2.22;;;14.60;99.90;;;;;;5010838;28;20022;-77
2021/06/24 01:38:46;;;;;;;4.13;2.17;;;14.60;99.90;;;;;;5010768;28;20025;-78
2021/06/24 01:41:13;;;;;;;3.65;2.10;;;14.60;99.90;;;;;;5010970;28;20164;-77
2021/06/24 01:43:39;;;;;;;2.92;2.00;;;14.50;99.90;;;;;;5010731;28;20479;-77
2021/06/24 01:46:05;;;;;;;2.95;2.28;;;14.50;99.90;;;;;;5010594;28;20058;-77
2021/06/24 01:48:31;;;;;;;4.55;2.20;;;14.50;99.90;;;;;;5010789;28;20025;-78
2021/06/24 01:50:59;;;;;;;2.95;1.70;;;14.50;99.90;;;;;;5010728;28;20044;-77
2021/06/24 01:53:25;;;;;;;2.67;1.88;;;14.40;99.90;;;;;;4996989;28;20072;-77
2021/06/24 01:55:52;;;;;;;3.83;2.05;;;14.40;99.90;;;;;;5010449;28;20680;-77
2021/06/24 01:58:23;;;;;;;4.88;1.85;;;14.40;99.90;;;;;;5010503;28;20037;-77
2021/06/24 02:00:51;;;;;;;2.17;1.58;;;14.40;99.90;;;;;;5010677;28;20545;-78
2021/06/24 02:03:18;;;;;;;3.92;1.55;;;14.40;99.90;;;;;;5010284;28;20033;-77
2021/06/24 02:05:49;;;;;;;2.42;1.70;;;14.40;99.90;;;;;;5010611;28;20044;-78
2021/06/24 02:08:26;;;;;;;2.58;1.90;;;14.30;99.90;;;;;;5010241;28;20056;-78
2021/06/24 02:10:54;;;;;;;3.83;1.90;;;14.30;99.90;;;;;;5009632;28;20026;-78
2021/06/24 02:13:20;;;;;;;3.05;1.75;;;14.30;99.90;;;;;;5010376;28;20030;-78
2021/06/24 02:15:46;;;;;;;3.58;1.90;;;14.30;99.90;;;;;;5010429;28;20475;-78
2021/06/24 02:18:11;;;;;;;4.40;1.88;;;14.30;99.90;;;;;;5010052;28;20085;-77
2021/06/24 02:20:39;;;;;;;4.97;2.20;;;14.20;99.90;;;;;;5007708;28;20026;-77
2021/06/24 02:23:04;;;;;;;2.38;1.70;;;14.20;99.90;;;;;;5009734;28;20037;-77
2021/06/24 02:25:32;;;;;;;3.20;1.80;;;14.10;99.90;;;;;;5010309;28;20442;-77
2021/06/24 02:27:58;;;;;;;3.83;1.90;;;14.20;99.90;;;;;;5010345;28;20068;-77
2021/06/24 02:30:23;;;;;;;2.78;2.00;;;14.10;99.90;;;;;;5010291;28;20061;-77
2021/06/24 02:32:50;;;;;;;4.70;2.13;;;14.10;99.90;;;;;;5009908;28;20097;-77
2021/06/24 02:35:16;;;;;;;4.25;2.35;;;14.00;99.90;;;;;;5010398;28;20022;-77
2021/06/24 02:37:43;;;;;;;5.38;1.80;;;14.00;99.90;;;;;;5010131;28;20030;-77
2021/06/24 02:40:10;;;;;;;3.13;2.13;;;14.00;99.90;;;;;;5010367;28;20026;-77
2021/06/24 02:42:36;;;;;;;4.05;2.20;;;14.00;99.90;;;;;;5009234;28;20417;-78
2021/06/24 02:45:07;;;;;;;2.88;2.13;;;14.00;99.90;;;;;;5010377;28;20030;-77
2021/06/24 02:47:33;;;;;;;4.45;2.28;;;13.90;99.90;;;;;;5010208;28;20022;-77
2021/06/24 02:49:58;;;;;;;2.67;2.05;;;13.90;99.90;;;;;;5010116;28;20049;-77
2021/06/24 02:52:24;;;;;;;2.53;1.98;;;13.90;99.90;;;;;;5009891;28;20078;-77
2021/06/24 02:54:51;;;;;;;5.03;2.20;;;13.90;99.90;;;;;;5010112;28;20080;-77
2021/06/24 02:57:17;;;;;;;3.10;1.77;;;13.80;99.90;;;;;;5010350;28;20021;-77
2021/06/24 02:59:42;;;;;;;5.07;1.83;;;13.80;99.90;;;;;;5009894;28;20026;-78
2021/06/24 03:02:08;;;;;;;6.05;2.30;;;13.80;99.90;;;;;;5010141;28;20382;-77
2021/06/24 03:04:34;;;;;;;3.15;2.13;;;13.80;99.90;;;;;;5008719;28;20037;-77
2021/06/24 03:07:01;;;;;;;3.47;1.88;;;13.70;99.90;;;;;;5009768;28;20026;-77
2021/06/24 03:09:27;;;;;;;2.63;1.67;;;13.80;99.90;;;;;;5010065;28;20021;-77
2021/06/24 03:11:52;;;;;;;2.78;2.03;;;13.80;99.90;;;;;;5009713;28;20469;-77
2021/06/24 03:14:18;;;;;;;4.53;2.00;;;13.70;99.90;;;;;;5009960;28;20030;-77
2021/06/24 03:16:44;;;;;;;2.05;1.58;;;13.70;99.90;;;;;;5009821;28;20118;-77
2021/06/24 03:19:10;;;;;;;4.60;2.10;;;13.70;99.90;;;;;;5008883;28;20074;-77
2021/06/24 03:21:36;;;;;;;2.58;2.05;;;13.70;99.90;;;;;;5009933;28;20073;-77
2021/06/24 03:24:02;;;;;;;5.40;1.90;;;13.60;99.90;;;;;;5011753;28;20029;-77
2021/06/24 03:26:27;;;;;;;5.82;2.40;;;13.60;99.90;;;;;;5012310;28;20145;-77
2021/06/24 03:28:53;;;;;;;3.25;1.60;;;13.60;99.90;;;;;;5013086;28;20072;-77
2021/06/24 03:31:18;;;;;;;3.80;1.90;;;13.60;99.90;;;;;;5011850;28;20103;-77
2021/06/24 03:33:44;;;;;;;3.42;1.92;;;13.60;99.90;;;;;;5013261;28;20037;-77
2021/06/24 03:36:10;;;;;;;3.35;2.20;;;13.60;99.90;;;;;;5011654;28;20018;-77
2021/06/24 03:38:36;;;;;;;3.85;2.22;;;13.70;99.90;;;;;;5013333;28;20379;-77
2021/06/24 03:41:02;;;;;;;2.75;1.80;;;13.70;99.90;;;;;;5012999;28;20828;-77
2021/06/24 03:43:28;;;;;;;2.65;1.90;;;13.70;99.90;;;;;;5012974;28;20034;-77
2021/06/24 03:45:54;;;;;;;4.35;1.95;;;13.70;99.90;;;;;;5012740;28;20033;-77
2021/06/24 03:48:19;;;;;;;3.03;2.08;;;13.60;99.90;;;;;;5012908;28;20029;-77
2021/06/24 03:50:45;;;;;;;3.03;1.80;;;13.70;99.90;;;;;;5012733;28;20030;-77
2021/06/24 03:53:12;;;;;;;3.13;1.83;;;13.70;99.90;;;;;;5012511;28;20068;-77
2021/06/24 03:55:46;;;;;;;5.60;2.75;;;13.70;99.90;;;;;;5012781;28;20119;-78
2021/06/24 03:58:13;;;;;;;7.70;2.67;;;13.70;99.90;;;;;;5011789;28;20502;-77
2021/06/24 04:00:44;;;;;;;7.32;2.45;;;13.70;99.90;;;;;;5012759;28;20058;-77
2021/06/24 04:03:11;;;;;;;3.90;2.47;;;13.80;99.90;;;;;;5012620;28;20022;-78
2021/06/24 04:05:36;;;;;;;3.38;2.67;;;13.80;99.90;;;;;;5011231;28;20026;-77
2021/06/24 04:08:05;;;;;;;5.03;2.80;;;13.80;99.90;;;;;;5012420;28;20442;-77
2021/06/24 04:10:32;;;;;;;3.53;2.22;;;13.90;99.90;;;;;;5012710;28;20022;-78
2021/06/24 04:12:58;;;;;;;3.63;2.80;;;13.90;99.90;;;;;;5012655;28;20038;-73
2021/06/24 04:15:25;;;;;;;4.43;2.90;;;13.90;99.90;;;;;;5012662;28;20123;-80
2021/06/24 04:17:51;;;;;;;4.55;3.28;;;13.90;99.90;;;;;;5013178;28;20026;-73
2021/06/24 04:20:18;;;;;;;6.60;3.22;;;14.00;99.90;;;;;;5007155;28;20426;-76
2021/06/24 04:22:44;;;;;;;3.33;2.20;;;14.00;99.90;;;;;;5008507;28;20041;-76
2021/06/24 04:25:11;;;;;;;3.13;1.85;;;14.00;99.90;;;;;;5010193;28;20052;-76
2021/06/24 04:27:37;;;;;;;4.68;1.90;;;14.00;99.90;;;;;;5008801;28;20022;-76
2021/06/24 04:30:04;;;;;;;2.95;1.80;;;14.10;99.90;;;;;;5010054;28;20456;-76
2021/06/24 04:32:30;;;;;;;4.65;2.10;;;14.10;99.90;;;;;;5007681;28;20040;-76
2021/06/24 04:34:56;;;;;;;4.20;1.80;;;14.20;99.90;;;;;;5008886;28;20124;-76
2021/06/24 04:37:21;;;;;;;4.40;2.20;;;14.20;99.90;;;;;;5010042;28;20029;-76
2021/06/24 04:39:47;;;;;;;2.20;1.45;;;14.30;99.90;;;;;;5011506;28;20021;-76
2021/06/24 04:42:12;;;;;;;2.08;1.70;;;14.40;99.90;;;;;;5010050;28;20109;-76
2021/06/24 04:44:39;;;;;;;4.28;1.75;;;14.40;99.90;;;;;;5011148;28;20033;-76
2021/06/24 04:47:04;;;;;;;3.28;1.58;;;14.40;99.90;;;;;;5008283;28;20038;-77
2021/06/24 04:49:30;;;;;;;2.05;1.60;;;14.50;99.90;;;;;;5009810;28;20029;-76
2021/06/24 04:51:55;;;;;;;3.22;1.85;;;14.50;99.90;;;;;;5008119;28;20029;-76
2021/06/24 04:54:21;;;;;;;4.97;1.98;;;14.50;99.90;;;;;;5007028;28;20072;-76
2021/06/24 04:56:46;;;;;;;2.25;1.80;;;14.60;99.90;;;;;;5009434;28;20097;-76
2021/06/24 04:59:13;;;;;;;3.58;2.35;;;14.60;99.90;;;;;;5009704;28;20125;-76
2021/06/24 05:01:38;;;;;;;5.43;2.55;;;14.60;99.90;;;;;;5012166;28;20030;-76
2021/06/24 05:04:04;;;;;;;4.00;2.20;;;14.60;99.90;;;;;;5011159;28;20025;-76
2021/06/24 05:06:30;;;;;;;3.25;1.95;;;14.70;99.90;;;;;;5011093;28;20025;-75
2021/06/24 05:08:55;;;;;;;3.83;2.30;;;14.80;99.90;;;;;;5010750;28;20101;-77
2021/06/24 05:11:21;;;;;;;3.42;2.20;;;14.80;99.90;;;;;;5010188;28;20044;-78
2021/06/24 05:13:47;;;;;;;4.97;2.13;;;14.90;99.90;;;;;;4995386;28;20026;-77
2021/06/24 05:16:12;;;;;;;2.33;1.85;;;15.00;99.90;;;;;;5001126;28;20357;-77
2021/06/24 05:18:38;;;;;;;3.85;1.80;;;15.10;99.90;;;;;;5005131;28;20467;-77
2021/06/24 05:21:04;;;;;;;6.03;1.63;;;15.10;99.90;;;;;;5002036;28;20092;-77
2021/06/24 05:23:30;;;;;;;4.18;1.85;;;15.20;99.90;;;;;;5004467;28;20026;-77
2021/06/24 05:25:57;;;;;;;1.98;1.42;;;15.30;99.90;;;;;;5000835;28;20099;-77
2021/06/24 05:28:22;;;;;;;2.97;1.88;;;15.40;99.90;;;;;;5004430;28;20026;-77
2021/06/24 05:30:48;;;;;;;5.38;1.80;;;15.50;99.90;;;;;;5002815;28;20029;-77
2021/06/24 05:33:15;;;;;;;3.03;1.60;;;15.50;99.90;;;;;;4998425;28;20088;-77
2021/06/24 05:35:41;;;;;;;4.32;1.73;;;15.60;99.90;;;;;;5002313;28;20049;-77
2021/06/24 05:38:11;;;;;;;2.05;1.50;;;15.70;99.90;;;;;;4996015;28;20376;-77
2021/06/24 05:40:37;;;;;;;2.78;1.65;;;15.80;99.90;;;;;;5001579;28;20025;-77
2021/06/24 05:43:03;;;;;;;2.90;1.60;;;15.90;99.90;;;;;;5005880;28;20018;-77
2021/06/24 05:45:29;;;;;;;2.17;1.60;;;16.10;99.90;;;;;;5000179;28;20030;-77
2021/06/24 05:47:56;;;;;;;2.65;1.33;;;16.20;99.90;;;;;;5001183;28;20024;-77
2021/06/24 05:50:22;;;;;;;2.15;1.60;;;16.20;99.90;;;;;;5001224;28;20026;-77
2021/06/24 05:52:48;;;;;;;3.70;1.50;;;16.30;99.90;;;;;;5022176;28;20510;-77
2021/06/24 05:55:14;;;;;;;2.30;1.60;;;16.40;99.90;;;;;;5010876;28;20030;-77
2021/06/24 05:57:40;;;;;;;4.38;1.40;;;16.50;99.90;;;;;;5007789;28;20056;-75
2021/06/24 06:00:07;;;;;;;1.92;1.20;;;16.60;99.90;;;;;;5006759;28;20487;-74
2021/06/24 06:02:32;;;;;;;2.88;1.50;;;16.60;99.90;;;;;;5001759;28;20023;-80
2021/06/24 06:04:58;;;;;;;2.05;1.60;;;16.60;99.90;;;;;;4996703;28;20037;-78
2021/06/24 06:07:23;;;;;;;3.88;1.67;;;16.80;99.90;;;;;;4995734;28;20022;-80
2021/06/24 06:09:49;;;;;;;2.28;1.70;;;16.80;99.90;;;;;;4993981;28;20510;-80
2021/06/24 06:12:15;;;;;;;2.35;1.67;;;17.00;99.90;;;;;;5010392;28;20068;-76
2021/06/24 06:14:40;;;;;;;3.50;1.70;;;17.10;99.90;;;;;;5010068;28;20050;-76
2021/06/24 06:17:06;;;;;;;3.08;1.60;;;17.20;99.90;;;;;;5007998;28;20112;-75
2021/06/24 06:19:32;;;;;;;3.80;1.60;;;17.30;99.90;;;;;;5011230;28;20026;-76
2021/06/24 06:21:58;;;;;;;3.90;1.60;;;17.30;99.90;;;;;;5009847;28;20021;-76
2021/06/24 06:24:23;;;;;;;4.05;1.60;;;17.20;99.90;;;;;;5003223;28;20077;-76
2021/06/24 06:26:49;;;;;;;1.70;1.60;;;17.20;99.90;;;;;;5003360;28;20064;-74
2021/06/24 06:29:14;;;;;;;3.13;1.83;;;17.20;99.90;;;;;;5005894;28;20060;-74
2021/06/24 06:31:40;;;;;;;2.60;1.73;;;17.30;99.90;;;;;;4998417;28;20034;-76
2021/06/24 06:34:07;;;;;;;3.17;1.60;;;17.40;99.90;;;;;;5006584;28;20018;-78
2021/06/24 06:36:34;;;;;;;3.78;1.80;;;17.50;99.90;;;;;;5009526;28;20424;-78
2021/06/24 06:38:59;;;;;;;2.38;1.60;;;17.70;99.90;;;;;;5009076;28;20490;-75
2021/06/24 06:41:25;;;;;;;2.13;1.58;;;17.80;99.90;;;;;;5009688;28;20074;-77
2021/06/24 06:43:51;;;;;;;2.25;1.50;;;17.80;99.90;;;;;;5009415;28;20030;-77
2021/06/24 06:46:16;;;;;;;3.97;1.50;;;17.90;99.90;;;;;;5009793;28;20128;-75
2021/06/24 06:48:42;;;;;;;2.85;1.48;;;17.80;99.90;;;;;;5011137;28;20030;-74
2021/06/24 06:51:08;;;;;;;3.60;1.50;;;17.80;99.90;;;;;;5009802;28;20471;-74
2021/06/24 06:53:33;;;;;;;1.70;1.35;;;17.90;99.90;;;;;;5010287;28;20034;-75
2021/06/24 06:55:59;;;;;;;3.67;1.50;;;17.90;99.90;;;;;;5009397;28;20038;-75
2021/06/24 06:58:24;;;;;;;3.78;2.03;;;17.90;99.90;;;;;;5012066;28;20021;-75
2021/06/24 07:00:50;;;;;;;3.50;1.35;;;18.00;99.90;;;;;;5013172;28;20100;-75
2021/06/24 07:03:16;;;;;;;1.83;1.42;;;18.00;99.90;;;;;;5013762;28;20058;-75
2021/06/24 07:05:42;;;;;;;2.40;1.50;;;18.10;99.90;;;;;;5014028;28;20363;-77
2021/06/24 07:08:08;;;;;;;2.08;1.67;;;18.20;99.90;;;;;;5012222;28;20034;-76
2021/06/24 07:10:33;;;;;;;2.47;1.50;;;18.30;99.90;;;;;;5012558;28;20041;-76
2021/06/24 07:13:00;;;;;;;2.22;1.65;;;18.20;99.90;;;;;;5012687;28;20498;-76
2021/06/24 07:15:25;;;;;;;3.08;1.80;;;18.10;99.90;;;;;;5012671;28;20026;-76
2021/06/24 07:17:51;;;;;;;3.97;1.85;;;18.30;99.90;;;;;;5012830;28;20100;-75
2021/06/24 07:20:17;;;;;;;1.90;1.40;;;18.30;99.90;;;;;;5013594;28;20108;-73
2021/06/24 07:22:43;;;;;;;2.08;1.40;;;18.50;99.90;;;;;;5016958;28;20076;-73
2021/06/24 07:25:10;;;;;;;3.25;1.40;;;18.50;99.90;;;;;;5016297;28;20037;-73
2021/06/24 07:27:37;;;;;;;3.25;1.30;;;18.60;99.90;;;;;;5016448;28;20117;-73
2021/06/24 07:30:05;;;;;;;3.50;1.88;;;18.60;99.90;;;;;;5016247;28;20018;-74
2021/06/24 07:32:31;;;;;;;2.20;1.55;;;18.70;99.90;;;;;;5013912;28;20109;-73
2021/06/24 07:34:57;;;;;;;3.08;1.48;;;18.80;99.90;;;;;;5014994;28;20113;-74
2021/06/24 07:37:22;;;;;;;1.95;1.35;;;18.80;99.90;;;;;;5016314;28;20448;-74
2021/06/24 07:39:48;;;;;;;4.00;1.40;;;18.70;99.90;;;;;;5016361;28;20053;-74
2021/06/24 07:42:14;;;;;;;4.97;1.70;;;18.70;99.90;;;;;;5016144;28;20454;-74
2021/06/24 07:44:40;;;;;;;3.33;1.80;;;18.60;99.90;;;;;;5016303;28;20022;-74
2021/06/24 07:47:05;;;;;;;5.15;1.27;;;18.60;99.90;;;;;;5015013;28;20105;-75
2021/06/24 07:49:31;;;;;;;2.33;1.38;;;18.70;99.90;;;;;;5010770;28;20402;-75
2021/06/24 07:51:57;;;;;;;2.65;1.38;;;18.80;99.90;;;;;;5012621;28;20030;-75
2021/06/24 07:54:22;;;;;;;2.00;1.58;;;19.00;99.90;;;;;;5011479;28;20042;-75
2021/06/24 07:56:48;;;;;;;2.47;1.30;;;19.20;99.90;;;;;;5012808;28;20067;-74
2021/06/24 07:59:15;;;;;;;2.22;1.38;;;19.30;99.90;;;;;;5016314;28;20049;-72
2021/06/24 08:01:42;;;;;;;1.90;1.65;;;19.40;99.90;;;;;;5016173;28;20022;-72
2021/06/24 08:04:08;;;;;;;2.85;1.48;;;19.50;99.90;;;;;;5016012;28;20490;-73
2021/06/24 08:06:33;;;;;;;1.77;1.60;;;19.70;99.90;;;;;;5014875;28;20421;-75
2021/06/24 08:08:59;;;;;;;1.60;1.30;;;19.90;99.90;;;;;;5010284;28;20080;-76
2021/06/24 08:11:25;;;;;;;2.30;1.40;;;20.00;99.90;;;;;;5013330;28;20474;-74
2021/06/24 08:13:50;;;;;;;3.00;1.52;;;20.20;99.90;;;;;;5015790;28;20022;-73
2021/06/24 08:16:16;;;;;;;3.25;1.60;;;20.30;99.90;;;;;;5015902;28;20096;-73
2021/06/24 08:18:42;;;;;;;2.30;1.50;;;20.40;99.90;;;;;;5012773;28;20026;-75
2021/06/24 08:21:08;;;;;;;2.50;1.80;;;20.40;99.90;;;;;;5010300;28;20030;-76
2021/06/24 08:23:34;;;;;;;2.50;1.58;;;20.50;99.90;;;;;;5011550;28;20034;-75
2021/06/24 08:26:00;;;;;;;1.73;1.23;;;20.40;99.90;;;;;;5015145;28;20410;-73
2021/06/24 08:28:26;;;;;;;4.10;1.45;;;20.40;99.90;;;;;;5012897;28;20022;-74
2021/06/24 08:30:52;;;;;;;2.40;1.40;;;20.40;99.90;;;;;;5013600;28;20386;-74
2021/06/24 08:33:18;;;;;;;4.15;1.63;;;20.30;99.90;;;;;;5014153;28;20033;-72
2021/06/24 08:35:44;;;;;;;2.08;1.50;;;20.20;99.90;;;;;;5015190;28;20029;-72
2021/06/24 08:38:12;;;;;;;2.47;1.50;;;20.20;99.90;;;;;;5014476;28;20018;-74
2021/06/24 08:40:39;;;;;;;2.42;1.58;;;20.30;99.90;;;;;;5014180;28;20060;-74
2021/06/24 08:43:06;;;;;;;3.63;1.38;;;20.50;99.90;;;;;;5014940;28;20038;-74
2021/06/24 08:45:31;;;;;;;1.88;1.35;;;20.50;99.90;;;;;;5014830;28;20030;-74
2021/06/24 08:48:00;;;;;;;1.63;1.35;;;20.60;99.90;;;;;;5015294;28;20386;-74
2021/06/24 08:50:26;;;;;;;3.45;1.48;;;20.60;99.90;;;;;;5014910;28;20029;-74
2021/06/24 08:52:54;;;;;;;1.73;1.42;;;20.80;99.90;;;;;;5014678;28;20050;-72
2021/06/24 08:55:20;;;;;;;2.00;1.60;;;20.80;99.90;;;;;;5013372;28;20078;-74
2021/06/24 08:57:47;;;;;;;2.10;1.50;;;21.00;99.90;;;;;;5014057;28;20332;-74
2021/06/24 09:00:13;;;;;;;1.50;1.30;;;21.00;99.90;;;;;;5013028;28;20022;-72
2021/06/24 09:02:41;;;;;;;1.75;1.60;;;21.10;99.90;;;;;;5014523;28;20100;-72
2021/06/24 09:05:09;;;;;;;2.88;1.42;;;21.10;99.90;;;;;;5014402;28;20036;-76
2021/06/24 09:07:53;;;;;;;2.58;1.52;;;21.10;99.90;;;;;;5013673;28;20033;-74
2021/06/24 09:10:23;;;;;;;2.00;1.55;;;20.90;99.90;;;;;;5013773;28;20022;-75
2021/06/24 09:12:51;;;;;;;3.15;1.42;;;20.80;99.90;;;;;;5013474;28;20112;-72
2021/06/24 09:15:17;;;;;;;2.47;1.50;;;20.90;99.90;;;;;;5014650;28;20018;-72
2021/06/24 09:17:45;;;;;;;4.65;1.77;;;20.90;99.90;;;;;;5014609;28;20164;-72
2021/06/24 09:20:19;;;;;;;1.80;1.50;;;21.00;99.90;;;;;;5014264;28;20060;-72
2021/06/24 09:23:03;;;;;;;;;;;21.30;99.90;;;;;;5015057;28;20033;-72
2021/06/24 09:25:29;;;;;;;2.15;1.30;;;21.30;99.90;;;;;;5030139;28;19912;-74
2021/06/24 09:27:55;;;;;;;1.88;1.40;;;21.20;99.90;;;;;;5013421;28;20021;-75
2021/06/24 09:30:28;;;;;;;2.35;1.23;;;21.20;99.90;;;;;;5007482;28;20026;-75
2021/06/24 09:32:54;;;;;;;1.88;1.50;;;21.10;99.90;;;;;;4996588;28;20117;-76
2021/06/24 09:35:29;;;;;;;2.92;1.60;;;21.20;99.90;;;;;;4997515;28;20857;-75
2021/06/24 09:38:06;;;;;;;1.85;1.20;;;21.50;99.90;;;;;;5001166;28;20348;-74
2021/06/24 09:40:52;;;;;;;1.95;1.33;;;21.70;99.90;;;;;;5014251;28;20029;-74
2021/06/24 09:43:26;;;;;;;2.70;1.40;;;22.00;99.90;;;;;;5014175;28;20188;-74
2021/06/24 09:46:30;;;;;;;2.15;1.48;;;22.40;99.90;;;;;;5014029;28;20028;-74
2021/06/24 09:49:01;;;;;;;2.72;1.63;;;22.80;99.90;;;;;;4997138;28;20047;-74
2021/06/24 09:51:30;;;;;;;3.17;1.50;;;22.80;99.90;;;;;;4994817;28;20033;-74
2021/06/24 09:54:03;;;;;;;2.95;1.55;;;22.70;99.90;;;;;;4994100;28;20046;-74
2021/06/24 09:56:32;;;;;;;4.45;1.85;;;22.60;99.90;;;;;;4994482;28;20014;-74
2021/06/24 09:59:02;;;;;;;3.25;1.50;;;22.60;99.90;;;;;;4994301;28;20575;-74
2021/06/24 10:01:36;;;;;;;2.95;1.98;;;22.50;99.90;;;;;;5011789;28;20030;-74
2021/06/24 10:04:05;;;;;;;2.70;1.40;;;23.00;99.90;;;;;;5012626;28;20029;-74
2021/06/24 10:06:31;;;;;;;2.60;1.77;;;23.40;99.90;;;;;;5012216;28;20038;-74
2021/06/24 10:08:57;;;;;;;2.88;1.70;;;23.50;99.90;;;;;;5013387;28;20057;-74
2021/06/24 10:11:25;;;;;;;2.70;1.83;;;23.50;99.90;;;;;;5013795;28;20037;-74
2021/06/24 10:13:51;;;;;;;3.53;1.48;;;23.50;99.90;;;;;;5006211;28;20747;-75
2021/06/24 10:16:17;;;;;;;3.10;1.70;;;23.30;99.90;;;;;;5005662;28;20561;-75
2021/06/24 10:18:47;;;;;;;2.00;1.58;;;23.20;99.90;;;;;;5010655;28;20133;-75
2021/06/24 10:21:15;;;;;;;1.80;1.50;;;23.30;99.90;;;;;;5010375;28;20470;-72
2021/06/24 10:24:10;;;;;;;1.98;1.40;;;23.40;99.90;;;;;;5010126;28;20026;-73
2021/06/24 10:26:47;;;;;;;;;;;23.40;99.90;;;;;;5010196;28;20022;-73
2021/06/24 10:29:18;;;;;;;2.03;1.40;;;23.30;99.90;;;;;;5008676;28;20534;-75
2021/06/24 10:31:48;;;;;;;2.83;1.85;;;23.20;99.90;;;;;;5009405;28;20382;-75
2021/06/24 10:34:15;;;;;;;2.72;1.92;;;23.40;99.90;;;;;;5013300;28;20029;-75
2021/06/24 10:37:10;;;;;;;2.40;1.88;;;23.70;99.90;;;;;;5013911;28;20026;-75
2021/06/24 10:39:36;;;;;;;5.05;1.90;;;23.80;99.90;;;;;;5008638;28;20025;-75
2021/06/24 10:42:09;;;;;;;2.70;1.90;;;23.70;99.90;;;;;;5013839;28;20457;-75
2021/06/24 10:44:58;;;;;;;2.83;1.92;;;24.00;99.90;;;;;;5013523;28;20105;-75
2021/06/24 10:47:28;;;;;;;4.57;1.80;;;24.20;99.90;;;;;;5011922;28;20044;-75
2021/06/24 10:49:54;;;;;;;3.33;2.00;;;24.20;99.90;;;;;;5008003;28;20026;-75
2021/06/24 10:52:29;;;;;;;3.83;2.80;;;24.00;99.90;;;;;;5016040;28;20053;-74
2021/06/24 10:54:58;;;;;;;2.47;2.00;;;23.90;99.90;;;;;;5014886;28;20078;-76
2021/06/24 10:57:34;;;;;;;3.53;2.00;;;23.70;99.90;;;;;;5012834;28;20441;-76
2021/06/24 11:00:37;;;;;;;2.92;1.83;;;23.80;99.90;;;;;;5012176;28;20034;-76
2021/06/24 11:03:08;;;;;;;3.25;1.70;;;24.10;99.90;;;;;;5004322;28;20034;-76
2021/06/24 11:05:41;;;;;;;3.03;1.50;;;24.20;99.90;;;;;;5012605;28;20030;-76
2021/06/24 11:08:15;;;;;;;1.90;1.50;;;24.30;99.90;;;;;;5012242;28;20022;-76
2021/06/24 11:10:54;;;;;;;1.70;1.30;;;24.50;99.90;;;;;;5013997;28;20504;-76
2021/06/24 11:13:34;;;;;;;3.50;2.00;;;24.50;99.90;;;;;;5010012;28;20384;-76
2021/06/24 11:16:03;;;;;;;2.63;1.50;;;24.50;99.90;;;;;;5008999;28;20072;-76
2021/06/24 11:18:31;;;;;;;4.00;1.70;;;24.60;99.90;;;;;;5012271;28;20026;-74
2021/06/24 11:21:13;;;;;;;2.88;1.90;;;24.90;99.90;;;;;;5016735;28;20097;-74
2021/06/24 11:24:01;;;;;;;2.90;1.73;;;24.90;99.90;;;;;;5016844;28;20045;-74
2021/06/24 11:26:29;;;;;;;2.25;1.67;;;24.90;99.90;;;;;;5012801;28;20014;-74
2021/06/24 11:29:04;;;;;;;2.28;1.70;;;24.90;99.90;;;;;;4996820;28;20033;-74
2021/06/24 11:31:37;;;;;;;2.70;1.80;;;25.20;99.90;;;;;;4997182;28;20038;-75
2021/06/24 11:36:57;;;;;;;2.40;1.50;;;25.30;99.90;;;;;;5006900;28;20064;-74
2021/06/24 11:39:28;;;;;;;3.38;1.83;;;25.10;99.90;;;;;;5016320;28;20021;-74
2021/06/24 11:41:57;;;;;;;2.85;1.75;;;25.20;99.90;;;;;;5016208;28;20037;-74
2021/06/24 11:44:35;;;;;;;2.92;1.73;;;25.30;99.90;;;;;;5016175;28;20104;-74
2021/06/24 11:47:08;;;;;;;3.55;1.90;;;25.20;99.90;;;;;;5004980;28;20057;-76
2021/06/24 12:04:14;;;;;;;3.78;2.55;;;24.10;99.90;;;;;;5002927;28;20026;-72
2021/06/24 12:06:43;;;;;;;3.97;2.85;;;24.10;99.90;;;;;;5015273;28;20013;-72
2021/06/24 12:09:08;;;;;;;2.42;2.03;;;24.00;99.90;;;;;;5015955;28;20018;-73
2021/06/24 12:11:36;;;;;;;3.13;2.38;;;24.30;99.90;;;;;;5015797;28;20037;-73
2021/06/24 12:14:35;;;;;;;3.80;2.40;;;24.40;99.90;;;;;;5015432;28;20026;-73
2021/06/24 12:17:09;;;;;;;4.88;1.83;;;24.30;99.90;;;;;;4993461;28;20034;-73
2021/06/24 12:20:01;;;;;;;2.83;1.98;;;24.40;99.90;;;;;;5008056;28;20026;-76
2021/06/24 12:22:39;;;;;;;2.95;2.30;;;24.60;99.90;;;;;;4987030;28;20046;-73
2021/06/24 12:25:27;;;;;;;4.10;2.08;;;24.90;99.90;;;;;;4996165;28;20498;-73
2021/06/24 12:27:58;;;;;;;3.45;2.40;;;24.90;99.90;;;;;;4995759;28;20407;-73
2021/06/24 12:30:30;;;;;;;3.47;2.55;;;25.00;99.90;;;;;;4995848;28;20030;-73
2021/06/24 12:33:10;;;;;;;2.50;1.85;;;24.80;99.90;;;;;;5003761;28;20458;-73
2021/06/24 12:35:42;;;;;;;3.88;2.03;;;24.60;99.90;;;;;;5015293;28;20053;-73
2021/06/24 12:38:10;;;;;;;2.38;2.03;;;24.50;99.90;;;;;;5010462;28;20084;-75
2021/06/24 12:40:41;;;;;;;3.28;2.20;;;24.40;99.90;;;;;;5013687;28;20119;-75
2021/06/24 12:43:08;;;;;;;2.88;1.95;;;24.60;99.90;;;;;;5007166;28;20074;-76
2021/06/24 12:45:38;;;;;;;2.28;1.60;;;24.70;99.90;;;;;;5015414;28;20030;-74
2021/06/24 12:48:05;;;;;;;3.88;1.65;;;25.00;99.90;;;;;;5014961;28;20376;-75
2021/06/24 12:50:34;;;;;;;4.55;2.15;;;25.40;99.90;;;;;;5014629;28;20026;-74
2021/06/24 12:53:02;;;;;;;2.30;1.77;;;25.50;99.90;;;;;;5014418;28;20060;-74
2021/06/24 12:55:41;;;;;;;2.13;1.60;;;25.30;99.90;;;;;;5014051;28;20443;-75
2021/06/24 12:58:28;;;;;;;3.20;1.83;;;25.20;99.90;;;;;;5014838;28;20053;-77
2021/06/24 13:00:58;;;;;;;2.15;1.50;;;25.10;99.90;;;;;;5012944;28;20034;-74
2021/06/24 13:03:39;;;;;;;2.90;1.40;;;24.80;99.90;;;;;;5014470;28;20109;-74
2021/06/24 13:06:28;;;;;;;1.65;1.40;;;24.70;99.90;;;;;;5014575;28;20048;-74
2021/06/24 13:08:54;;;;;;;2.85;1.58;;;25.00;99.90;;;;;;5014314;28;20033;-74
2021/06/24 13:11:22;;;;;;;3.63;1.77;;;25.00;99.90;;;;;;5014025;28;20474;-74